Pagrindinis puslapis
METAR-TAF:

METAR-TAF

Oro uostai :

Larnaka, Kipras

platuma: 34-53N, ilguma: 033-38E, Aukštis: 2 m

Dabartinis oras

Ataskaita buvo paskelbta 32 minutes, ne 21:30 UTC
Vėjas 11 kt iš Šiaurės/Šiaurės Vakarų
Temperatūra 19°C
Drėgmė 73%
Slėgis 1017 hPa
Matomumas 10 km arba daugiau
Mažai debesys ne aukštis 5000 ft

METAR: LCLK 302130Z 33011KT 9999 FEW050 19/14 Q1017 NOSIG

Laikas: 01:02 (22:02 UTC)

Prognozė

Ataskaita buvo paskelbta 4 valandos ir 32 minutes, ne 17:30 UTC
Prognozė galioja nuo 30 metu 18 UTC su 31 metu 18 UTC
Vėjas 8 kt iš Šiaurės Vakarų
Matomumas 10 km arba daugiau
Mažai debesys ne aukštis 3000 ft
Tapsmas
nuo 31 metu 08 UTC su 31 metu 11 UTC
Vėjas 13 kt iš Pietų
Tapsmas
nuo 31 metu 16 UTC su 31 metu 18 UTC
Vėjas 6 kt iš Šiaurės Vakarų

TAF: LCLK 301730Z 3018/3118 32008KT 9999 FEW030 BECMG 3108/3111 18013KT BECMG 3116/3118 31006KT

Orai ataskaitas ir orų prognozės (METAR, TAF).

turimą stotys yra geltonos ir raudonos taškus žemėlapyje.

Perkelti pele per norėdami pamatyti stoties vardą.

Tada spustelėkite, norėdami matyti oro stebėjimo ir prognozės.

Norėdami pakeisti žemėlapį: spustelėkite ant žalios mygtukų su juodo kryžiaus žemyn,; žalią mygtuką su brūkšneliu, jei norite nutolinti; arba žalių rodyklių gretimoms žemėlapius.


METAR-TAF: